Time;durP1;ratioP1;P1;durP2;ratioP2;P2;SDS_P1;SDS_P2;PMS_P1;PMS_P2;Temp;Humidity;BMP_temperature;BMP_pressure;BME280_temperature;BME280_humidity;BME280_pressure;Samples;Min_cycle;Max_cycle;Signal;HPM_P1;HPM_P2
2024/01/05 00:01:37;;;;;;;29.38;18.23;;;4.10;99.90;;;;;;4850450;29;20168;-91
2024/01/05 00:04:03;;;;;;;30.00;15.30;;;4.20;99.90;;;;;;4853128;29;20411;-91
2024/01/05 00:06:29;;;;;;;17.77;11.52;;;4.10;99.90;;;;;;4836364;29;20465;-90
2024/01/05 00:08:55;;;;;;;30.70;16.83;;;4.10;99.90;;;;;;4839476;29;20052;-91
2024/01/05 00:11:21;;;;;;;24.65;15.35;;;4.20;99.90;;;;;;4839071;29;20045;-90
2024/01/05 00:13:47;;;;;;;27.95;16.65;;;4.20;99.90;;;;;;4835366;29;20045;-90
2024/01/05 00:16:20;;;;;;;35.38;17.45;;;4.10;99.90;;;;;;4851019;29;20067;-91
2024/01/05 00:18:46;;;;;;;25.90;16.60;;;4.10;99.90;;;;;;4842004;29;20418;-90
2024/01/05 00:21:25;;;;;;;20.95;14.43;;;4.10;99.90;;;;;;4855107;29;20045;-90
2024/01/05 00:23:52;;;;;;;24.35;15.07;;;4.10;99.90;;;;;;4848853;29;20037;-92
2024/01/05 00:26:19;;;;;;;28.55;16.95;;;4.10;99.90;;;;;;4857216;29;20047;-91
2024/01/05 00:28:45;;;;;;;33.28;16.48;;;4.10;99.90;;;;;;4857502;29;20049;-91
2024/01/05 00:31:12;;;;;;;31.33;17.98;;;4.10;99.90;;;;;;4868329;29;20140;-91
2024/01/05 00:33:40;;;;;;;28.50;17.08;;;4.00;99.90;;;;;;4866853;29;20068;-91
2024/01/05 00:36:06;;;;;;;29.65;16.58;;;4.10;99.90;;;;;;4859147;29;20133;-91
2024/01/05 00:38:32;;;;;;;20.38;12.70;;;4.10;99.90;;;;;;4858600;29;20041;-91
2024/01/05 00:40:58;;;;;;;24.80;17.10;;;4.10;99.90;;;;;;4855067;29;20040;-91
2024/01/05 00:43:23;;;;;;;28.20;15.48;;;4.00;99.90;;;;;;4855423;29;20065;-91
2024/01/05 00:45:49;;;;;;;23.02;13.88;;;4.10;99.90;;;;;;4859541;29;20041;-91
2024/01/05 00:48:15;;;;;;;22.35;14.48;;;4.00;99.90;;;;;;4838539;29;20037;-91
2024/01/05 00:50:41;;;;;;;22.10;13.95;;;4.00;99.90;;;;;;4854225;29;20486;-91
2024/01/05 00:53:06;;;;;;;18.05;11.73;;;4.00;99.90;;;;;;4867972;29;20056;-91
2024/01/05 00:55:32;;;;;;;23.58;12.88;;;4.00;99.90;;;;;;4844697;29;20109;-91
2024/01/05 00:57:58;;;;;;;26.58;15.25;;;4.00;99.90;;;;;;4854888;29;20041;-91
2024/01/05 01:00:24;;;;;;;20.95;11.30;;;4.00;99.90;;;;;;4846947;29;20045;-91
2024/01/05 01:02:53;;;;;;;26.83;15.45;;;4.00;99.90;;;;;;4848212;29;20056;-91
2024/01/05 01:05:19;;;;;;;25.95;14.70;;;4.00;99.90;;;;;;4863347;29;20041;-91
2024/01/05 01:07:45;;;;;;;22.50;15.48;;;4.00;99.90;;;;;;4835630;29;20298;-90
2024/01/05 01:10:11;;;;;;;30.20;16.30;;;3.90;99.90;;;;;;4863016;29;20055;-91
2024/01/05 01:12:37;;;;;;;22.30;14.05;;;3.90;99.90;;;;;;4838433;29;20049;-91
2024/01/05 01:15:03;;;;;;;14.55;9.13;;;3.90;99.90;;;;;;4855560;29;20067;-91
2024/01/05 01:17:31;;;;;;;23.40;14.10;;;3.90;99.90;;;;;;4842055;29;20502;-91
2024/01/05 01:19:57;;;;;;;23.08;14.40;;;4.00;99.90;;;;;;4854254;29;20070;-90
2024/01/05 01:22:22;;;;;;;25.20;14.75;;;4.00;99.90;;;;;;4855882;29;20442;-90
2024/01/05 01:24:48;;;;;;;25.75;15.10;;;3.90;99.90;;;;;;4860712;29;20049;-91
2024/01/05 01:27:17;;;;;;;22.63;13.82;;;3.90;99.90;;;;;;4859602;29;20533;-90
2024/01/05 01:29:43;;;;;;;26.40;14.75;;;4.00;99.90;;;;;;4861635;29;20124;-91
2024/01/05 01:32:09;;;;;;;20.30;12.15;;;3.90;99.90;;;;;;4853450;29;20715;-90
2024/01/05 01:34:36;;;;;;;23.48;14.10;;;3.90;99.90;;;;;;4841484;29;20490;-91
2024/01/05 01:37:02;;;;;;;24.17;14.80;;;4.00;99.90;;;;;;4862327;29;20048;-90
2024/01/05 01:39:28;;;;;;;21.50;12.80;;;4.00;99.90;;;;;;4859400;29;20085;-91
2024/01/05 01:41:54;;;;;;;28.27;15.10;;;4.00;99.90;;;;;;4858717;29;20049;-91
2024/01/05 01:44:19;;;;;;;23.95;12.60;;;4.00;99.90;;;;;;4862207;29;20932;-91
2024/01/05 01:46:45;;;;;;;24.52;14.63;;;3.90;99.90;;;;;;4839372;29;20106;-90
2024/01/05 01:49:11;;;;;;;25.30;14.13;;;3.90;99.90;;;;;;4856453;29;20049;-90
2024/01/05 01:51:37;;;;;;;17.20;10.07;;;3.90;99.90;;;;;;4855420;29;20049;-89
2024/01/05 01:54:06;;;;;;;20.75;13.52;;;4.00;99.90;;;;;;4871230;29;20176;-90
2024/01/05 01:56:34;;;;;;;17.52;10.73;;;4.00;99.90;;;;;;4857417;29;20048;-90
2024/01/05 01:59:00;;;;;;;21.05;12.85;;;4.00;99.90;;;;;;4858582;29;20033;-89
2024/01/05 02:01:26;;;;;;;17.23;10.88;;;3.90;99.90;;;;;;4856678;29;20127;-90
2024/01/05 02:03:53;;;;;;;18.52;12.00;;;3.90;99.90;;;;;;4871980;29;20064;-90
2024/01/05 02:06:19;;;;;;;21.80;12.23;;;4.10;99.90;;;;;;4849933;29;20041;-90
2024/01/05 02:08:46;;;;;;;21.80;13.32;;;4.00;99.90;;;;;;4849391;29;20097;-90
2024/01/05 02:11:13;;;;;;;22.05;12.20;;;3.90;99.90;;;;;;4858986;29;20399;-91
2024/01/05 02:13:40;;;;;;;21.52;13.25;;;3.90;99.90;;;;;;4863080;29;20739;-90
2024/01/05 02:16:05;;;;;;;22.27;13.20;;;3.90;99.90;;;;;;4853573;29;20060;-90
2024/01/05 02:18:31;;;;;;;19.30;13.65;;;3.90;99.90;;;;;;4880235;29;20524;-91
2024/01/05 02:21:00;;;;;;;27.65;15.50;;;4.00;99.90;;;;;;4857147;29;20394;-91
2024/01/05 02:23:27;;;;;;;13.88;9.05;;;3.90;99.90;;;;;;4859201;29;20098;-90
2024/01/05 02:25:55;;;;;;;23.75;13.52;;;4.00;99.90;;;;;;4859993;29;20124;-90
2024/01/05 02:28:21;;;;;;;22.85;12.68;;;3.90;99.90;;;;;;4853997;29;20321;-89
2024/01/05 02:30:47;;;;;;;17.02;10.57;;;4.00;99.90;;;;;;4843640;29;20037;-90
2024/01/05 02:33:12;;;;;;;17.02;12.15;;;3.90;99.90;;;;;;4871162;29;20113;-89
2024/01/05 02:35:38;;;;;;;21.23;14.50;;;4.00;99.90;;;;;;4837193;29;20450;-89
2024/01/05 02:38:05;;;;;;;23.20;13.57;;;3.90;99.90;;;;;;4853171;29;20045;-89
2024/01/05 02:40:31;;;;;;;20.27;11.75;;;4.00;99.90;;;;;;4854125;29;20037;-89
2024/01/05 02:42:57;;;;;;;22.00;14.55;;;4.10;99.90;;;;;;4858789;29;20036;-89
2024/01/05 02:45:24;;;;;;;21.58;14.50;;;4.00;99.90;;;;;;4851250;29;20049;-89
2024/01/05 02:47:50;;;;;;;18.98;11.85;;;4.10;99.90;;;;;;4844235;29;20033;-89
2024/01/05 02:50:16;;;;;;;15.48;10.73;;;3.90;99.90;;;;;;4855374;29;20467;-89
2024/01/05 02:52:42;;;;;;;20.83;12.23;;;4.10;99.90;;;;;;4855563;29;20045;-88
2024/01/05 02:55:10;;;;;;;16.25;11.20;;;4.00;99.90;;;;;;4859344;29;20048;-89
2024/01/05 02:57:36;;;;;;;12.07;9.55;;;3.90;99.90;;;;;;4854727;29;20045;-86
2024/01/05 03:00:03;;;;;;;16.50;10.25;;;4.10;99.90;;;;;;4835545;29;20056;-89
2024/01/05 03:02:29;;;;;;;17.43;11.40;;;4.00;99.90;;;;;;4855495;29;20049;-88
2024/01/05 03:04:54;;;;;;;15.00;10.60;;;4.10;99.90;;;;;;4854239;29;20394;-89
2024/01/05 03:07:20;;;;;;;12.20;8.82;;;4.00;99.90;;;;;;4844230;29;20358;-88
2024/01/05 03:09:46;;;;;;;17.95;13.52;;;4.00;99.90;;;;;;4866213;29;20067;-90
2024/01/05 03:12:11;;;;;;;10.55;7.78;;;4.00;99.90;;;;;;4858592;29;20037;-89
2024/01/05 03:14:37;;;;;;;15.63;10.98;;;4.00;99.90;;;;;;4853644;29;20518;-88
2024/01/05 03:17:03;;;;;;;20.85;14.07;;;4.10;99.90;;;;;;4844609;29;20075;-88
2024/01/05 03:19:28;;;;;;;19.70;13.25;;;4.20;99.90;;;;;;4830209;29;20041;-88
2024/01/05 03:21:54;;;;;;;22.70;13.80;;;4.10;99.90;;;;;;4829014;29;20045;-89
2024/01/05 03:24:20;;;;;;;26.58;16.40;;;4.20;99.90;;;;;;4838607;29;20095;-89
2024/01/05 03:26:46;;;;;;;21.15;12.88;;;4.00;99.90;;;;;;4830162;29;20558;-89
2024/01/05 03:29:12;;;;;;;24.70;16.35;;;4.10;99.90;;;;;;4830441;29;20048;-89
2024/01/05 03:31:37;;;;;;;19.13;13.88;;;4.20;99.90;;;;;;4826285;29;20683;-89
2024/01/05 03:34:04;;;;;;;20.63;13.10;;;4.20;99.90;;;;;;4828253;29;20687;-89
2024/01/05 03:36:29;;;;;;;23.80;14.27;;;4.20;99.90;;;;;;4832006;29;20102;-89
2024/01/05 03:38:55;;;;;;;26.75;16.80;;;4.10;99.90;;;;;;4829531;29;20041;-89
2024/01/05 03:41:21;;;;;;;16.05;11.35;;;4.10;99.90;;;;;;4814515;29;20052;-90
2024/01/05 03:43:47;;;;;;;25.10;16.95;;;4.20;99.90;;;;;;4829222;29;20136;-89
2024/01/05 03:46:12;;;;;;;16.42;11.07;;;4.20;99.90;;;;;;4830580;29;20049;-89
2024/01/05 03:48:39;;;;;;;20.48;13.15;;;4.30;99.90;;;;;;4827257;29;20060;-89
2024/01/05 03:51:05;;;;;;;21.13;14.30;;;4.30;99.90;;;;;;4830613;29;20136;-89
2024/01/05 03:53:30;;;;;;;20.63;14.55;;;4.30;99.90;;;;;;4831509;29;20052;-89
2024/01/05 03:56:00;;;;;;;20.90;12.95;;;4.20;99.90;;;;;;4828269;29;20041;-89
2024/01/05 03:58:26;;;;;;;20.42;14.43;;;4.40;99.90;;;;;;4824408;29;20045;-89
2024/01/05 04:00:51;;;;;;;18.17;13.18;;;4.30;99.90;;;;;;4835016;29;20029;-90
2024/01/05 04:03:17;;;;;;;17.60;11.75;;;4.30;99.90;;;;;;4822609;29;20130;-89
2024/01/05 04:05:43;;;;;;;20.52;14.13;;;4.30;99.90;;;;;;4833632;29;20045;-89
2024/01/05 04:08:09;;;;;;;20.08;15.32;;;4.40;99.90;;;;;;4828587;29;20041;-89
2024/01/05 04:10:36;;;;;;;22.40;15.88;;;4.40;99.90;;;;;;4827964;29;21845;-89
2024/01/05 04:13:02;;;;;;;21.02;14.25;;;4.30;99.90;;;;;;4831075;29;20140;-89
2024/01/05 04:15:28;;;;;;;18.58;12.52;;;4.40;99.90;;;;;;4830347;29;20056;-90
2024/01/05 04:17:53;;;;;;;24.25;16.77;;;4.40;99.90;;;;;;4857218;29;20387;-89
2024/01/05 04:20:19;;;;;;;26.08;17.33;;;4.40;99.90;;;;;;4840477;29;20041;-89
2024/01/05 04:22:45;;;;;;;25.60;17.75;;;4.50;99.90;;;;;;4872879;29;20116;-92
2024/01/05 04:25:10;;;;;;;18.13;12.88;;;4.50;99.90;;;;;;4865000;29;20037;-90
2024/01/05 04:27:37;;;;;;;24.40;16.45;;;4.60;99.90;;;;;;4838556;29;20067;-90
2024/01/05 04:30:03;;;;;;;23.25;16.92;;;4.40;99.90;;;;;;4862935;29;20055;-90
2024/01/05 04:32:29;;;;;;;24.88;17.40;;;4.50;99.90;;;;;;4856642;29;20061;-89
2024/01/05 04:34:55;;;;;;;19.75;14.25;;;4.50;99.90;;;;;;4865423;29;20119;-92
2024/01/05 04:37:20;;;;;;;21.88;15.25;;;4.50;99.90;;;;;;4863054;29;20112;-90
2024/01/05 04:39:46;;;;;;;24.50;16.00;;;4.50;99.90;;;;;;4856676;29;20219;-90
2024/01/05 04:42:12;;;;;;;27.75;17.90;;;4.50;99.90;;;;;;4865567;29;20056;-90
2024/01/05 04:44:38;;;;;;;23.92;16.95;;;4.40;99.90;;;;;;4855672;29;20064;-89
2024/01/05 04:47:04;;;;;;;28.13;17.10;;;4.40;99.90;;;;;;4852445;29;20047;-90
2024/01/05 04:49:31;;;;;;;24.35;17.58;;;4.50;99.90;;;;;;4858020;29;20056;-90
2024/01/05 04:51:57;;;;;;;27.30;17.33;;;4.40;99.90;;;;;;4838970;29;20045;-89
2024/01/05 04:54:23;;;;;;;27.13;18.65;;;4.40;99.90;;;;;;4854511;29;20037;-90
2024/01/05 04:56:49;;;;;;;26.42;18.48;;;4.60;99.90;;;;;;4853820;29;20048;-89
2024/01/05 04:59:15;;;;;;;27.25;18.45;;;4.50;99.90;;;;;;4861868;29;20043;-90
2024/01/05 05:01:40;;;;;;;27.80;17.17;;;4.60;99.90;;;;;;4866849;29;20048;-89
2024/01/05 05:04:06;;;;;;;21.38;16.15;;;4.60;99.90;;;;;;4857633;29;20494;-90
2024/01/05 05:06:32;;;;;;;23.65;16.52;;;4.50;99.90;;;;;;4858750;29;20067;-90
2024/01/05 05:08:58;;;;;;;22.42;15.25;;;4.60;99.90;;;;;;4862724;29;20063;-91
2024/01/05 05:11:24;;;;;;;27.02;19.15;;;4.60;99.90;;;;;;4834448;29;20041;-90
2024/01/05 05:13:49;;;;;;;22.48;15.88;;;4.50;99.90;;;;;;4854546;29;20043;-90
2024/01/05 05:16:15;;;;;;;26.30;16.80;;;4.60;99.90;;;;;;4851507;29;20057;-88
2024/01/05 05:18:40;;;;;;;25.63;16.80;;;4.60;99.90;;;;;;4851474;29;20512;-91
2024/01/05 05:21:06;;;;;;;26.63;18.02;;;4.50;99.90;;;;;;4853816;29;20454;-91
2024/01/05 05:23:32;;;;;;;25.38;16.35;;;4.60;99.90;;;;;;4867910;29;20461;-90
2024/01/05 05:25:57;;;;;;;28.90;19.15;;;4.70;99.90;;;;;;4852945;29;20076;-90
2024/01/05 05:28:23;;;;;;;30.58;18.95;;;4.60;99.90;;;;;;4835749;29;20041;-91
2024/01/05 05:30:50;;;;;;;29.35;18.60;;;4.60;99.90;;;;;;4837072;29;20117;-90
2024/01/05 05:33:15;;;;;;;28.67;19.20;;;4.70;99.90;;;;;;4851016;29;20052;-91
2024/01/05 05:35:41;;;;;;;28.20;18.33;;;4.60;99.90;;;;;;4836168;29;20045;-91
2024/01/05 05:38:07;;;;;;;27.23;19.20;;;4.60;99.90;;;;;;4856647;29;20065;-91
2024/01/05 05:40:32;;;;;;;29.20;17.40;;;4.70;99.90;;;;;;4851308;29;20156;-91
2024/01/05 05:42:58;;;;;;;33.55;21.50;;;4.60;99.90;;;;;;4869131;29;20041;-92
2024/01/05 05:45:24;;;;;;;23.95;17.27;;;4.70;99.90;;;;;;4858349;29;20037;-91
2024/01/05 05:47:50;;;;;;;29.45;20.05;;;4.80;99.90;;;;;;4855824;29;20040;-91
2024/01/05 05:50:16;;;;;;;34.65;21.60;;;4.80;99.90;;;;;;4852051;29;20080;-92
2024/01/05 05:52:43;;;;;;;26.50;17.85;;;4.80;99.90;;;;;;4853092;29;20176;-91
2024/01/05 05:55:12;;;;;;;33.73;20.30;;;4.80;99.90;;;;;;4832056;29;20060;-91
2024/01/05 05:57:39;;;;;;;30.65;19.35;;;4.80;99.90;;;;;;4853229;29;20489;-91
2024/01/05 06:00:06;;;;;;;25.48;16.77;;;5.00;99.90;;;;;;4840860;29;20044;-91
2024/01/05 06:02:32;;;;;;;27.65;19.38;;;4.90;99.90;;;;;;4834045;29;20067;-90
2024/01/05 06:04:57;;;;;;;29.58;18.65;;;5.00;99.90;;;;;;4852894;29;20048;-90
2024/01/05 06:07:24;;;;;;;21.35;14.27;;;4.80;99.90;;;;;;4851192;29;20097;-91
2024/01/05 06:09:50;;;;;;;32.65;19.98;;;4.90;99.90;;;;;;4852451;29;20133;-90
2024/01/05 06:12:17;;;;;;;30.60;18.23;;;4.90;99.90;;;;;;4850722;29;20080;-90
2024/01/05 06:14:43;;;;;;;31.60;19.00;;;4.90;99.90;;;;;;4865804;29;20060;-90
2024/01/05 06:17:09;;;;;;;27.50;18.83;;;5.10;99.90;;;;;;4846748;29;20132;-90
2024/01/05 06:19:34;;;;;;;35.13;21.30;;;5.10;99.90;;;;;;4857266;29;20136;-89
2024/01/05 06:22:00;;;;;;;33.50;20.92;;;5.10;99.90;;;;;;4848610;29;20140;-90
2024/01/05 06:24:26;;;;;;;31.02;20.10;;;5.20;99.90;;;;;;4853304;29;20041;-91
2024/01/05 06:26:52;;;;;;;35.70;21.27;;;5.10;99.90;;;;;;4851908;29;20048;-89
2024/01/05 06:29:18;;;;;;;36.30;21.48;;;5.20;99.90;;;;;;4852249;29;20037;-91
2024/01/05 06:31:43;;;;;;;37.97;21.50;;;5.10;99.90;;;;;;4838362;29;20573;-91
2024/01/05 06:34:09;;;;;;;31.10;19.80;;;5.10;99.90;;;;;;4854353;29;21575;-89
2024/01/05 06:36:34;;;;;;;31.92;19.98;;;5.10;99.90;;;;;;4851256;29;20047;-89
2024/01/05 06:39:00;;;;;;;33.83;19.48;;;5.20;99.90;;;;;;4848856;29;20501;-91
2024/01/05 06:41:27;;;;;;;30.48;16.85;;;5.20;99.90;;;;;;4850132;29;20047;-90
2024/01/05 06:43:52;;;;;;;33.72;20.77;;;5.20;99.90;;;;;;4849561;29;20064;-90
2024/01/05 06:46:18;;;;;;;37.30;20.58;;;5.20;99.90;;;;;;4850887;29;20047;-92
2024/01/05 06:48:43;;;;;;;40.95;22.20;;;5.30;99.90;;;;;;4849684;29;20247;-92
2024/01/05 06:51:09;;;;;;;33.28;19.65;;;5.30;99.90;;;;;;4830589;29;20045;-91
2024/01/05 06:53:35;;;;;;;33.53;20.50;;;5.20;99.90;;;;;;4848149;29;20093;-91
2024/01/05 06:56:00;;;;;;;24.60;15.68;;;5.20;99.90;;;;;;4835510;29;20055;-91
2024/01/05 06:58:27;;;;;;;36.33;21.30;;;5.30;99.90;;;;;;4845089;29;20439;-91
2024/01/05 07:00:56;;;;;;;33.65;20.83;;;5.20;99.90;;;;;;4834078;29;20066;-90
2024/01/05 07:03:22;;;;;;;33.50;19.75;;;5.20;99.90;;;;;;4845670;29;20055;-90
2024/01/05 07:05:48;;;;;;;25.17;16.33;;;5.30;99.90;;;;;;4846662;29;20422;-90
2024/01/05 07:08:14;;;;;;;30.00;19.27;;;5.30;99.90;;;;;;4829141;29;20529;-90
2024/01/05 07:10:40;;;;;;;32.47;20.55;;;5.30;99.90;;;;;;4844550;29;20052;-91
2024/01/05 07:13:14;;;;;;;29.55;18.38;;;5.40;99.90;;;;;;4849101;29;20049;-91
2024/01/05 07:15:40;;;;;;;30.17;19.67;;;5.40;99.90;;;;;;4846358;29;20073;-89
2024/01/05 07:18:06;;;;;;;31.80;20.50;;;5.40;99.90;;;;;;4847074;29;20049;-90
2024/01/05 07:20:33;;;;;;;27.98;17.50;;;5.40;99.90;;;;;;4844257;29;20048;-89
2024/01/05 07:22:59;;;;;;;32.30;20.80;;;5.40;99.90;;;;;;4844882;29;20063;-89
2024/01/05 07:25:25;;;;;;;28.42;19.65;;;5.40;99.90;;;;;;4843475;29;20089;-89
2024/01/05 07:27:50;;;;;;;44.20;21.17;;;5.40;99.90;;;;;;4847218;29;20076;-89
2024/01/05 07:30:16;;;;;;;33.00;20.83;;;5.50;99.90;;;;;;4863234;29;20064;-90
2024/01/05 07:32:42;;;;;;;29.00;18.23;;;5.50;99.90;;;;;;4845088;29;20156;-90
2024/01/05 07:35:07;;;;;;;31.92;19.08;;;5.50;99.90;;;;;;4845841;29;20137;-90
2024/01/05 07:37:33;;;;;;;30.92;17.40;;;5.50;99.90;;;;;;4844513;29;20048;-90
2024/01/05 07:39:59;;;;;;;30.70;20.08;;;5.60;99.90;;;;;;4845078;29;20037;-90
2024/01/05 07:42:27;;;;;;;32.45;18.92;;;5.50;99.90;;;;;;4844949;29;20060;-90
2024/01/05 07:44:54;;;;;;;33.85;19.58;;;5.60;99.90;;;;;;4861117;29;20059;-87
2024/01/05 07:47:19;;;;;;;35.67;19.00;;;5.60;99.90;;;;;;4847528;29;20045;-91
2024/01/05 07:49:45;;;;;;;34.13;19.23;;;5.60;99.90;;;;;;4852117;29;20048;-90
2024/01/05 07:52:11;;;;;;;32.67;17.95;;;5.60;99.90;;;;;;4840496;29;20040;-90
2024/01/05 07:54:40;;;;;;;35.55;18.85;;;5.70;99.90;;;;;;4847317;29;20397;-90
2024/01/05 07:57:05;;;;;;;31.92;19.50;;;5.60;99.90;;;;;;4847937;29;20048;-92
2024/01/05 07:59:31;;;;;;;32.00;19.52;;;5.60;99.90;;;;;;4848819;29;20045;-91
2024/01/05 08:01:57;;;;;;;39.42;19.38;;;5.80;99.90;;;;;;4847621;29;20069;-90
2024/01/05 08:04:22;;;;;;;31.95;17.50;;;5.80;99.90;;;;;;4847782;29;20049;-91
2024/01/05 08:06:48;;;;;;;31.25;18.15;;;5.70;99.90;;;;;;4845772;29;20116;-91
2024/01/05 08:09:14;;;;;;;32.15;17.70;;;5.80;99.90;;;;;;4845665;29;20041;-91
2024/01/05 08:11:40;;;;;;;31.55;17.15;;;5.80;99.90;;;;;;4829978;29;20037;-91
2024/01/05 08:14:09;;;;;;;26.80;16.83;;;5.80;99.90;;;;;;4850109;29;20715;-90
2024/01/05 08:16:35;;;;;;;26.40;15.65;;;5.90;99.90;;;;;;4826181;29;21203;-90
2024/01/05 08:19:01;;;;;;;31.38;16.08;;;6.10;99.90;;;;;;4825570;29;20570;-93
2024/01/05 08:21:26;;;;;;;22.55;12.55;;;6.00;99.90;;;;;;4829377;29;20056;-86
2024/01/05 08:23:52;;;;;;;26.13;15.25;;;6.10;99.90;;;;;;4830880;29;20046;-94
2024/01/05 08:26:19;;;;;;;21.73;13.57;;;;;;;;;;4832983;29;20057;-92
2024/01/05 08:28:45;;;;;;;24.65;15.00;;;6.20;99.90;;;;;;4833830;29;20077;-92
2024/01/05 08:31:11;;;;;;;24.75;14.02;;;6.20;99.90;;;;;;4835217;29;20529;-93
2024/01/05 08:33:36;;;;;;;23.02;13.05;;;6.30;99.90;;;;;;4818885;29;20077;-95
2024/01/05 08:36:02;;;;;;;24.70;12.98;;;6.30;99.90;;;;;;4816036;29;20067;-94
2024/01/05 08:38:28;;;;;;;23.98;12.80;;;6.40;99.90;;;;;;4817315;29;20063;-93
2024/01/05 08:40:54;;;;;;;21.33;12.57;;;6.30;99.90;;;;;;4835661;29;20040;-87
2024/01/05 08:43:19;;;;;;;23.30;12.48;;;6.90;99.90;;;;;;4837476;29;20061;-95
2024/01/05 08:45:46;;;;;;;24.42;12.55;;;6.40;99.90;;;;;;4822846;29;20048;-94
2024/01/05 08:48:11;;;;;;;24.27;11.73;;;6.50;99.90;;;;;;4836519;29;20499;-94
2024/01/05 08:50:37;;;;;;;22.75;11.52;;;6.50;99.90;;;;;;4834532;29;20259;-91
2024/01/05 08:53:03;;;;;;;20.95;10.65;;;6.40;99.90;;;;;;4832494;29;20097;-92
2024/01/05 08:55:29;;;;;;;22.38;10.20;;;6.60;99.90;;;;;;4825936;29;20053;-93
2024/01/05 08:57:55;;;;;;;18.85;9.88;;;6.50;99.90;;;;;;4837216;29;20108;-94
2024/01/05 09:00:21;;;;;;;15.20;9.43;;;6.60;99.90;;;;;;4844313;29;20529;-93
2024/01/05 09:02:47;;;;;;;19.85;8.80;;;6.50;99.90;;;;;;4837936;29;20650;-92
2024/01/05 09:05:13;;;;;;;16.50;8.77;;;6.60;99.90;;;;;;4851647;29;21445;-93
2024/01/05 09:07:41;;;;;;;22.13;8.10;;;6.60;99.90;;;;;;4844538;29;20080;-93
2024/01/05 09:10:08;;;;;;;;;;;6.60;99.90;;;;;;4834390;29;20055;-92
2024/01/05 09:12:34;;;;;;;16.58;7.50;;;6.60;99.90;;;;;;4829575;29;20852;-93
2024/01/05 09:14:59;;;;;;;18.13;7.30;;;6.60;99.90;;;;;;4838837;29;20065;-94
2024/01/05 09:17:25;;;;;;;18.13;7.03;;;6.70;99.90;;;;;;4854281;29;20053;-93
2024/01/05 09:19:51;;;;;;;16.38;6.80;;;6.70;99.90;;;;;;4859377;29;20045;-93
2024/01/05 09:22:20;;;;;;;15.23;6.72;;;6.80;99.90;;;;;;4863761;29;20104;-92
2024/01/05 09:24:46;;;;;;;16.55;6.85;;;6.80;99.90;;;;;;4857165;29;20045;-92
2024/01/05 09:27:11;;;;;;;15.48;5.78;;;6.80;99.90;;;;;;4842836;29;20067;-93
2024/01/05 09:29:37;;;;;;;15.80;5.53;;;6.80;99.90;;;;;;4858259;29;20684;-92
2024/01/05 09:32:03;;;;;;;13.68;5.60;;;6.80;99.90;;;;;;4857109;29;20183;-93
2024/01/05 09:34:30;;;;;;;12.90;4.95;;;6.90;99.90;;;;;;4855618;29;20130;-93
2024/01/05 09:36:55;;;;;;;12.32;5.35;;;6.90;99.90;;;;;;4843163;29;20045;-93
2024/01/05 09:39:21;;;;;;;15.35;5.88;;;7.00;99.90;;;;;;4843445;29;20128;-92
2024/01/05 09:41:47;;;;;;;10.20;3.72;;;7.00;99.90;;;;;;4853831;29;20061;-93
2024/01/05 09:44:13;;;;;;;11.63;3.35;;;7.00;99.90;;;;;;4855846;29;20037;-92
2024/01/05 09:46:40;;;;;;;3.83;2.10;;;7.00;99.90;;;;;;4844682;29;20513;-93
2024/01/05 09:49:09;;;;;;;6.63;2.55;;;7.00;99.90;;;;;;4861103;29;20049;-93
2024/01/05 09:51:38;;;;;;;5.13;2.80;;;7.00;99.90;;;;;;4863866;29;20413;-93
2024/01/05 09:54:06;;;;;;;4.35;2.22;;;7.00;99.90;;;;;;4862943;29;20037;-93
2024/01/05 09:56:31;;;;;;;5.35;2.33;;;7.00;99.90;;;;;;4862652;29;20056;-93
2024/01/05 09:58:57;;;;;;;5.68;2.00;;;7.00;99.90;;;;;;4864701;29;20641;-93
2024/01/05 10:01:26;;;;;;;3.40;1.75;;;7.00;99.90;;;;;;4859749;29;20037;-93
2024/01/05 10:04:01;;;;;;;5.43;1.92;;;7.10;99.90;;;;;;4853233;29;20127;-93
2024/01/05 10:06:28;;;;;;;6.35;1.90;;;7.10;99.90;;;;;;4862554;29;20051;-92
2024/01/05 10:08:55;;;;;;;5.72;1.80;;;7.20;99.90;;;;;;4863856;29;20117;-92
2024/01/05 10:11:35;;;;;;;4.22;2.00;;;7.20;99.90;;;;;;4874091;29;20541;-92
2024/01/05 10:14:07;;;;;;;7.68;2.33;;;7.20;99.90;;;;;;4848112;29;20550;-93
2024/01/05 10:16:39;;;;;;;8.23;2.50;;;7.10;99.90;;;;;;4846370;29;20044;-94
2024/01/05 10:19:19;;;;;;;6.05;2.20;;;7.10;99.90;;;;;;4869759;29;20513;-93
2024/01/05 10:21:47;;;;;;;6.68;2.55;;;7.00;99.90;;;;;;4873322;29;20059;-93
2024/01/05 10:24:26;;;;;;;6.70;2.40;;;7.20;99.90;;;;;;4859487;29;20055;-96
2024/01/05 10:27:08;;;;;;;4.30;1.65;;;7.10;99.90;;;;;;4873431;29;20311;-90
2024/01/05 10:29:36;;;;;;;5.75;1.60;;;7.10;99.90;;;;;;4866369;29;20494;-92
2024/01/05 10:32:18;;;;;;;;;;;7.10;99.90;;;;;;4872213;29;20048;-94
2024/01/05 10:34:46;;;;;;;5.28;1.30;;;7.20;99.90;;;;;;4882655;29;19924;-94
2024/01/05 10:37:21;;;;;;;2.40;1.45;;;7.20;99.90;;;;;;4855221;29;20044;-95
2024/01/05 10:39:48;;;;;;;2.65;1.20;;;7.20;99.90;;;;;;4873175;29;20041;-94
2024/01/05 10:42:35;;;;;;;4.20;1.67;;;7.30;99.90;;;;;;4873041;29;20135;-94
2024/01/05 10:45:01;;;;;;;2.60;1.00;;;7.30;99.90;;;;;;4878874;29;20091;-95
2024/01/05 10:47:31;;;;;;;1.83;1.10;;;7.40;99.90;;;;;;4851010;29;20072;-94
2024/01/05 10:49:57;;;;;;;3.80;1.20;;;7.20;99.90;;;;;;4870487;29;20048;-94
2024/01/05 10:52:27;;;;;;;1.73;1.00;;;7.90;99.90;;;;;;4853870;29;20049;-95
2024/01/05 10:54:53;;;;;;;3.13;0.95;;;7.30;99.90;;;;;;4857871;29;20124;-93
2024/01/05 10:57:20;;;;;;;1.02;0.73;;;7.40;99.90;;;;;;4866053;29;20116;-93
2024/01/05 10:59:50;;;;;;;3.67;1.20;;;;;;;;;;4870843;29;20561;-94
2024/01/05 11:02:34;;;;;;;3.30;0.80;;;7.40;99.90;;;;;;4865490;29;20304;-93
2024/01/05 11:05:08;;;;;;;3.35;0.90;;;7.40;99.90;;;;;;4872535;29;20041;-93
2024/01/05 11:07:35;;;;;;;3.63;0.80;;;7.50;99.90;;;;;;4869526;29;20475;-96
2024/01/05 11:10:23;;;;;;;2.10;1.40;;;7.40;99.90;;;;;;4870353;29;20044;-93
2024/01/05 11:13:19;;;;;;;3.50;1.27;;;7.40;99.90;;;;;;4866714;29;20040;-93
2024/01/05 11:16:16;;;;;;;2.45;0.90;;;7.30;99.90;;;;;;4865003;29;20048;-90
2024/01/05 11:19:19;;;;;;;3.28;1.30;;;7.40;99.90;;;;;;4845241;29;20044;-93
2024/01/05 11:21:59;;;;;;;1.38;0.70;;;7.30;99.90;;;;;;4869660;29;20562;-96
2024/01/05 11:24:26;;;;;;;1.73;0.77;;;7.30;99.90;;;;;;4873118;29;20514;-92
2024/01/05 11:26:54;;;;;;;0.65;0.50;;;7.30;99.90;;;;;;4873171;29;20093;-93
2024/01/05 11:29:46;;;;;;;1.25;0.82;;;7.30;99.90;;;;;;4874711;29;20045;-95
2024/01/05 11:32:32;;;;;;;1.85;1.75;;;7.30;99.90;;;;;;4854501;29;20413;-95
2024/01/05 11:34:57;;;;;;;2.65;1.85;;;7.30;99.90;;;;;;4870568;29;20044;-94
2024/01/05 11:37:30;;;;;;;0.70;0.70;;;7.20;99.90;;;;;;4855444;29;20051;-94
2024/01/05 11:39:58;;;;;;;3.03;1.05;;;7.20;99.90;;;;;;4859981;29;20056;-95
2024/01/05 11:42:27;;;;;;;3.42;0.90;;;7.20;99.90;;;;;;4866624;29;20055;-93
2024/01/05 11:45:01;;;;;;;3.90;0.80;;;7.20;99.90;;;;;;4875026;29;20044;-95
2024/01/05 11:47:44;;;;;;;1.88;0.80;;;7.10;99.90;;;;;;4869988;29;20047;-95
2024/01/05 11:50:46;;;;;;;1.15;0.88;;;7.10;99.90;;;;;;4868867;29;20040;-94
2024/01/05 11:53:17;;;;;;;1.75;0.80;;;7.00;99.90;;;;;;4834030;29;20102;-95
2024/01/05 11:55:53;;;;;;;1.05;0.77;;;6.90;99.90;;;;;;4839555;29;20242;-94
2024/01/05 11:58:21;;;;;;;1.80;0.93;;;6.90;99.90;;;;;;4832156;29;20155;-94
2024/01/05 12:00:48;;;;;;;3.03;0.98;;;6.90;99.90;;;;;;4832905;29;20101;-94
2024/01/05 12:03:15;;;;;;;1.05;0.82;;;6.70;99.90;;;;;;4801187;29;20046;-94
2024/01/05 12:05:41;;;;;;;1.52;0.90;;;6.80;99.90;;;;;;4795503;29;20053;-93
2024/01/05 12:08:11;;;;;;;1.10;0.90;;;6.80;99.90;;;;;;4830397;29;20180;-94
2024/01/05 12:10:39;;;;;;;0.93;0.88;;;6.70;99.90;;;;;;4805934;29;20129;-92
2024/01/05 12:13:05;;;;;;;;;;;6.70;99.90;;;;;;4787284;29;20042;-91
2024/01/05 12:15:31;;;;;;;2.33;0.90;;;6.80;99.90;;;;;;4808262;29;19966;-91
2024/01/05 12:18:09;;;;;;;1.73;1.00;;;6.90;99.90;;;;;;4804219;29;20046;-91
2024/01/05 12:20:35;;;;;;;2.78;1.10;;;6.90;99.90;;;;;;4804776;29;20437;-91
2024/01/05 12:23:01;;;;;;;1.20;1.10;;;6.90;99.90;;;;;;4804996;29;20070;-90
2024/01/05 12:25:27;;;;;;;2.28;1.20;;;6.90;99.90;;;;;;4803802;29;20046;-91
2024/01/05 12:27:53;;;;;;;4.47;1.00;;;6.90;99.90;;;;;;4846189;29;20052;-90
2024/01/05 12:30:20;;;;;;;0.93;0.80;;;6.90;99.90;;;;;;4857337;29;20410;-91
2024/01/05 12:32:47;;;;;;;1.58;1.10;;;6.90;99.90;;;;;;4854933;29;20047;-91
2024/01/05 12:35:13;;;;;;;1.20;0.90;;;6.80;99.90;;;;;;4850562;29;20373;-90
2024/01/05 12:37:51;;;;;;;1.80;1.00;;;6.80;99.90;;;;;;4864646;29;20040;-91
2024/01/05 12:40:23;;;;;;;1.58;1.27;;;6.70;99.90;;;;;;4868822;29;20461;-91
2024/01/05 12:42:49;;;;;;;1.05;0.95;;;6.70;99.90;;;;;;4864403;29;20123;-90
2024/01/05 12:45:16;;;;;;;1.63;1.20;;;6.60;99.90;;;;;;4848656;29;20323;-91